Time;durP1;ratioP1;P1;durP2;ratioP2;P2;SDS_P1;SDS_P2;PMS_P1;PMS_P2;Temp;Humidity;BMP_temperature;BMP_pressure;BME280_temperature;BME280_humidity;BME280_pressure;Samples;Min_cycle;Max_cycle;Signal;HPM_P1;HPM_P2
2021/11/01 00:00:53;;;;;;;82.83;44.73;;;;;;;5.36;67.33;101048.27;127351;1101;101734;-79
2021/11/01 00:03:21;;;;;;;81.00;43.13;;;;;;;5.32;67.08;101041.05;127368;1101;101673;-79
2021/11/01 00:05:50;;;;;;;81.40;43.13;;;;;;;5.30;67.39;101047.86;127322;1101;101590;-79
2021/11/01 00:08:18;;;;;;;81.13;43.97;;;;;;;5.31;67.53;101047.04;127182;1101;101502;-79
2021/11/01 00:10:47;;;;;;;78.00;42.57;;;;;;;5.32;67.08;101037.55;127296;1100;101915;-79
2021/11/01 00:13:15;;;;;;;83.97;44.50;;;;;;;5.32;67.37;101034.95;127383;1101;101521;-79
2021/11/01 00:15:43;;;;;;;90.53;45.80;;;;;;;5.32;67.63;101033.23;126353;1102;101669;-79
2021/11/01 00:18:12;;;;;;;83.67;44.67;;;;;;;5.30;67.30;101032.25;126311;1102;101567;-79
2021/11/01 00:20:41;;;;;;;78.70;44.60;;;;;;;5.29;67.18;101029.55;127362;1102;101516;-79
2021/11/01 00:23:09;;;;;;;85.20;46.60;;;;;;;5.26;67.44;101022.42;127329;1101;101990;-79
2021/11/01 00:25:38;;;;;;;76.70;44.67;;;;;;;5.25;67.23;101028.45;127347;1101;101729;-79
2021/11/01 00:28:08;;;;;;;76.60;40.87;;;;;;;5.21;67.08;101024.73;126314;1101;101673;-79
2021/11/01 00:30:37;;;;;;;73.60;41.30;;;;;;;5.19;67.37;101022.84;127378;1101;101342;-79
2021/11/01 00:33:06;;;;;;;71.10;38.60;;;;;;;5.14;67.59;101014.73;127402;1101;101536;-79
2021/11/01 00:35:35;;;;;;;72.97;39.87;;;;;;;5.12;67.73;101015.42;127378;1101;101986;-79
2021/11/01 00:38:04;;;;;;;78.70;42.20;;;;;;;5.09;67.36;101016.11;127199;1101;101510;-79
2021/11/01 00:40:34;;;;;;;76.53;43.37;;;;;;;5.06;67.75;101010.70;127301;1101;101535;-79
2021/11/01 00:43:03;;;;;;;76.20;44.77;;;;;;;5.06;67.99;101004.62;126400;1102;101981;-79
2021/11/01 00:45:32;;;;;;;78.27;44.10;;;;;;;5.03;67.58;101008.83;127366;1101;101518;-79
2021/11/01 00:48:01;;;;;;;84.07;46.43;;;;;;;5.01;67.80;101005.20;127215;1101;103020;-79
2021/11/01 00:50:29;;;;;;;80.27;46.73;;;;;;;4.97;67.78;101004.89;127290;1101;101572;-79
2021/11/01 00:52:58;;;;;;;80.67;46.20;;;;;;;4.97;67.75;101002.30;127332;1101;101540;-79
2021/11/01 00:55:34;;;;;;;85.50;49.00;;;;;;;4.94;67.60;101010.81;127361;1101;101921;-79
2021/11/01 00:58:03;;;;;;;82.83;47.90;;;;;;;4.91;67.48;101007.09;127231;1101;101576;-79
2021/11/01 01:00:31;;;;;;;85.40;48.47;;;;;;;4.86;67.99;101002.50;127369;1101;101876;-79
2021/11/01 01:02:59;;;;;;;82.37;49.23;;;;;;;4.81;67.91;101000.38;127289;1102;101851;-79
2021/11/01 01:05:28;;;;;;;83.13;48.23;;;;;;;4.78;68.13;101010.58;127350;1100;101511;-79
2021/11/01 01:07:55;;;;;;;84.00;48.73;;;;;;;4.72;67.91;100999.77;127177;1101;101494;-79
2021/11/01 01:10:23;;;;;;;83.60;46.33;;;;;;;4.69;67.42;101003.08;127318;1100;101961;-79
2021/11/01 01:12:51;;;;;;;79.13;45.37;;;;;;;4.68;68.10;100996.07;126345;1102;101936;-79
2021/11/01 01:15:23;;;;;;;78.03;44.07;;;;;;;4.69;67.47;100995.28;127290;1101;101848;-79
2021/11/01 01:17:52;;;;;;;79.97;43.47;;;;;;;4.71;68.14;100990.19;127329;1101;101545;-79
2021/11/01 01:20:21;;;;;;;75.90;44.57;;;;;;;4.70;67.98;100996.17;127390;1101;101491;-79
2021/11/01 01:22:49;;;;;;;73.93;44.20;;;;;;;4.65;67.39;100990.66;127368;1100;101551;-79
2021/11/01 01:25:38;;;;;;;76.00;43.83;;;;;;;4.65;67.67;100981.16;127345;1101;102730;-79
2021/11/01 01:28:08;;;;;;;80.53;45.20;;;;;;;4.63;67.84;100984.47;126302;1102;101572;-79
2021/11/01 01:30:36;;;;;;;81.40;46.00;;;;;;;4.58;67.44;100989.36;127355;1101;101584;-79
2021/11/01 01:33:07;;;;;;;73.43;44.60;;;;;;;4.49;67.95;100991.34;127302;1101;101371;-79
2021/11/01 01:35:37;;;;;;;73.97;41.83;;;;;;;4.34;67.84;100985.09;127317;1102;101981;-79
2021/11/01 01:38:05;;;;;;;69.50;39.93;;;;;;;4.22;67.43;100983.43;127327;1101;102369;-79
2021/11/01 01:40:34;;;;;;;67.87;39.30;;;;;;;4.11;67.86;100982.72;127339;1101;101528;-79
2021/11/01 01:43:04;;;;;;;66.17;38.17;;;;;;;4.03;67.89;100978.67;127341;1101;101675;-79
2021/11/01 01:45:33;;;;;;;72.30;39.47;;;;;;;4.01;67.64;100981.97;127362;1101;101581;-79
2021/11/01 01:48:01;;;;;;;71.10;41.17;;;;;;;3.97;67.97;100978.23;127379;1101;101524;-79
2021/11/01 01:50:30;;;;;;;68.77;38.63;;;;;;;4.00;67.90;100981.05;127244;1101;119409;-79
2021/11/01 01:52:58;;;;;;;71.83;41.67;;;;;;;4.03;68.31;100980.38;127338;1101;101621;-80
2021/11/01 01:55:25;;;;;;;76.70;43.63;;;;;;;4.02;67.68;100974.29;127301;1101;101515;-79
2021/11/01 01:57:53;;;;;;;72.67;42.07;;;;;;;4.01;68.02;100976.78;127347;1101;101455;-79
2021/11/01 02:00:35;;;;;;;71.63;41.23;;;;;;;4.00;68.36;100965.47;127223;1101;101521;-79
2021/11/01 02:03:03;;;;;;;69.83;42.13;;;;;;;3.96;67.92;100971.27;127338;1101;101971;-79
2021/11/01 02:05:42;;;;;;;67.87;40.93;;;;;;;3.93;67.99;100971.05;127347;1101;101523;-79
2021/11/01 02:08:14;;;;;;;73.20;40.77;;;;;;;3.88;67.76;100970.73;127350;1101;101617;-78
2021/11/01 02:10:54;;;;;;;70.73;40.23;;;;;;;3.89;68.17;100974.22;126301;1102;101501;-79
2021/11/01 02:13:27;;;;;;;70.83;41.10;;;;;;;3.89;68.11;100977.70;127362;1101;101948;-80
2021/11/01 02:15:58;;;;;;;72.07;40.83;;;;;;;3.88;67.89;100970.73;127348;1101;101948;-80
2021/11/01 02:18:31;;;;;;;69.20;37.93;;;;;;;3.89;68.31;100974.22;126315;1102;101545;-79
2021/11/01 02:21:17;;;;;;;65.60;38.63;;;;;;;3.88;68.42;100975.92;127205;1101;101323;-79
2021/11/01 02:23:51;;;;;;;66.73;38.77;;;;;;;3.88;67.65;100975.92;127249;1101;102432;-79
2021/11/01 02:26:23;;;;;;;69.53;39.67;;;;;;;3.90;68.34;100979.52;127358;1101;101585;-78
2021/11/01 02:28:53;;;;;;;70.27;40.77;;;;;;;3.93;68.43;100966.75;126355;1102;102071;-79
2021/11/01 02:31:21;;;;;;;73.70;40.57;;;;;;;3.90;68.09;100974.33;127125;1101;109216;-79
2021/11/01 02:33:50;;;;;;;70.87;38.83;;;;;;;3.85;68.21;100970.52;127353;1102;101546;-79
2021/11/01 02:36:19;;;;;;;70.23;39.07;;;;;;;3.79;68.19;100972.68;126348;1102;101605;-79
2021/11/01 02:38:50;;;;;;;70.23;39.03;;;;;;;3.67;68.41;100962.32;127380;1101;101687;-79
2021/11/01 02:41:21;;;;;;;69.83;39.43;;;;;;;3.59;68.30;100966.97;127257;1101;103135;-79
2021/11/01 02:43:55;;;;;;;65.93;39.07;;;;;;;3.55;68.44;100975.34;126280;1105;101597;-80
2021/11/01 02:46:24;;;;;;;67.08;37.70;;;;;;;3.54;68.53;100963.16;126328;1105;101646;-80
2021/11/01 02:48:53;;;;;;;69.67;36.87;;;;;;;3.53;68.80;100960.45;126308;1105;101811;-78
2021/11/01 02:51:24;;;;;;;66.43;38.63;;;;;;;3.47;68.14;100960.90;126268;1105;102623;-78
2021/11/01 02:53:53;;;;;;;64.73;34.93;;;;;;;3.41;68.22;100955.27;126318;1105;101875;-79
2021/11/01 02:56:22;;;;;;;64.37;35.80;;;;;;;3.35;68.26;100965.20;126317;1105;101401;-79
2021/11/01 02:58:50;;;;;;;65.97;37.07;;;;;;;3.36;68.31;100967.91;126329;1105;101605;-79
2021/11/01 03:01:20;;;;;;;63.07;37.67;;;;;;;3.41;68.28;100963.05;126280;1105;101991;-78
2021/11/01 03:03:48;;;;;;;62.53;36.03;;;;;;;3.49;68.51;100972.31;126363;1102;101616;-79
2021/11/01 03:06:22;;;;;;;63.07;37.07;;;;;;;3.56;68.84;100964.15;127393;1101;101990;-78
2021/11/01 03:08:53;;;;;;;66.80;39.03;;;;;;;3.59;69.39;100966.97;127304;1101;101909;-79
2021/11/01 03:11:22;;;;;;;64.97;39.20;;;;;;;3.63;68.75;100968.11;127203;1100;101860;-79
2021/11/01 03:13:50;;;;;;;65.27;39.10;;;;;;;3.68;69.04;100966.73;127347;1101;101831;-78
2021/11/01 03:16:20;;;;;;;63.47;35.83;;;;;;;3.70;68.55;100964.24;127346;1101;101527;-78
2021/11/01 03:18:57;;;;;;;68.27;38.60;;;;;;;3.68;69.27;100958.05;127351;1101;103001;-78
2021/11/01 03:21:28;;;;;;;62.67;35.83;;;;;;;3.69;69.39;100954.64;127105;1101;101528;-79
2021/11/01 03:23:56;;;;;;;62.23;37.57;;;;;;;3.68;69.10;100950.27;126362;1102;101118;-79
2021/11/01 03:26:27;;;;;;;64.53;38.13;;;;;;;3.70;69.23;100943.48;127375;1102;101648;-79
2021/11/01 03:28:58;;;;;;;64.43;37.93;;;;;;;3.75;69.35;100942.09;127348;1101;101978;-78
2021/11/01 03:31:27;;;;;;;61.93;36.77;;;;;;;3.80;68.69;100942.41;126348;1102;102266;-79
2021/11/01 03:33:57;;;;;;;67.33;37.53;;;;;;;3.87;68.72;100947.26;126342;1102;102714;-78
2021/11/01 03:36:27;;;;;;;66.87;36.33;;;;;;;3.93;69.13;100943.38;127374;1101;101747;-78
2021/11/01 03:38:57;;;;;;;65.33;38.30;;;;;;;4.04;69.55;100935.44;126329;1102;101713;-78
2021/11/01 03:41:26;;;;;;;70.43;40.77;;;;;;;4.06;68.87;100932.13;127189;1101;101543;-78
2021/11/01 03:43:59;;;;;;;72.37;40.40;;;;;;;4.12;68.98;100929.06;126341;1102;103061;-79
2021/11/01 03:46:34;;;;;;;69.83;39.07;;;;;;;4.19;69.32;100927.78;126288;1102;101757;-80
2021/11/01 03:49:05;;;;;;;68.07;40.10;;;;;;;4.23;69.36;100917.70;127345;1101;101542;-79
2021/11/01 03:51:40;;;;;;;68.97;39.57;;;;;;;4.22;68.85;100923.68;127178;1100;101502;-79
2021/11/01 03:54:10;;;;;;;65.17;38.13;;;;;;;4.18;68.70;100913.91;127365;1101;101331;-78
2021/11/01 03:56:38;;;;;;;72.17;39.70;;;;;;;4.10;69.18;100909.89;126353;1102;101916;-79
2021/11/01 03:59:08;;;;;;;67.77;36.73;;;;;;;4.06;69.12;100906.16;127299;1100;101760;-79
2021/11/01 04:01:41;;;;;;;65.43;38.80;;;;;;;4.05;69.29;100909.58;127183;1101;101323;-78
2021/11/01 04:04:10;;;;;;;66.62;39.10;;;;;;;4.04;69.66;100905.17;127285;1101;101527;-78
2021/11/01 04:06:39;;;;;;;66.00;38.57;;;;;;;4.08;69.46;100902.00;127215;1100;101539;-78
2021/11/01 04:09:12;;;;;;;67.10;37.87;;;;;;;4.09;69.47;100897.69;126380;1102;102010;-78
2021/11/01 04:11:43;;;;;;;71.47;38.53;;;;;;;4.09;69.52;100892.50;127201;1101;102142;-78
2021/11/01 04:14:15;;;;;;;68.03;38.83;;;;;;;4.07;69.50;100894.98;127334;1101;101060;-78
2021/11/01 04:16:45;;;;;;;68.87;39.37;;;;;;;4.09;69.46;100883.00;127325;1101;101048;-78
2021/11/01 04:21:56;;;;;;;70.90;41.50;;;;;;;4.22;69.84;100889.02;127258;1101;102159;-78
2021/11/01 04:24:28;;;;;;;74.23;42.40;;;;;;;4.27;69.96;100888.55;127308;1101;101964;-78
2021/11/01 04:26:56;;;;;;;71.00;42.03;;;;;;;4.36;69.56;100890.84;127340;1101;101099;-78
2021/11/01 04:29:28;;;;;;;74.90;42.73;;;;;;;4.41;69.57;100885.95;127350;1100;101509;-78
2021/11/01 04:32:04;;;;;;;79.43;44.83;;;;;;;4.46;69.67;100889.78;127234;1101;101543;-78
2021/11/01 04:34:35;;;;;;;75.77;43.67;;;;;;;4.46;69.67;100885.47;127406;1101;101980;-78
2021/11/01 04:37:03;;;;;;;76.27;43.37;;;;;;;4.50;69.64;100883.96;126368;1102;101792;-79
2021/11/01 04:39:39;;;;;;;78.23;44.47;;;;;;;4.54;69.88;100880.78;127426;1101;101555;-79
2021/11/01 04:42:37;;;;;;;75.47;42.20;;;;;;;4.56;70.03;100876.58;127278;1101;101868;-78
2021/11/01 04:53:07;;;;;;;82.77;43.67;;;;;;;4.53;69.54;100876.38;127240;1101;101496;-79
2021/11/01 04:55:36;;;;;;;82.20;45.47;;;;;;;4.56;69.10;100876.58;126329;1102;101625;-80
2021/11/01 04:58:04;;;;;;;80.90;44.57;;;;;;;4.59;69.46;100868.98;127369;1101;101496;-79
2021/11/01 05:00:32;;;;;;;88.73;46.07;;;;;;;4.65;69.29;100881.48;127378;1101;102741;-79
2021/11/01 05:03:04;;;;;;;80.60;45.67;;;;;;;4.71;69.06;100881.00;126266;1102;102579;-79
2021/11/01 05:05:33;;;;;;;73.33;41.40;;;;;;;4.75;69.61;100885.58;126314;1102;101596;-79
2021/11/01 05:08:03;;;;;;;81.53;43.33;;;;;;;4.78;69.40;100888.37;127422;1101;101463;-80
2021/11/01 05:10:34;;;;;;;72.67;41.43;;;;;;;4.76;69.34;100887.39;127133;1102;101503;-80
2021/11/01 05:13:10;;;;;;;82.90;43.57;;;;;;;4.76;69.36;100895.19;126327;1102;101992;-80
2021/11/01 05:15:42;;;;;;;83.47;42.73;;;;;;;4.73;69.90;100894.98;126300;1103;101600;-79
2021/11/01 05:18:20;;;;;;;82.10;44.90;;;;;;;4.68;69.49;100890.38;127289;1102;101612;-79
2021/11/01 05:20:53;;;;;;;83.23;44.57;;;;;;;4.68;69.20;100892.98;127366;1101;101523;-79
2021/11/01 05:23:30;;;;;;;73.95;43.90;;;;;;;4.66;69.46;100889.39;127207;1101;102023;-80
2021/11/01 05:26:03;;;;;;;78.07;43.90;;;;;;;4.61;69.76;100900.27;127265;1101;101959;-80
2021/11/01 05:28:42;;;;;;;83.83;46.13;;;;;;;4.60;69.66;100899.38;126304;1101;101641;-80
2021/11/01 05:31:16;;;;;;;88.97;45.43;;;;;;;4.60;69.59;100886.38;127404;1100;101476;-79
2021/11/01 05:33:52;;;;;;;85.32;47.23;;;;;;;4.63;69.94;100901.30;127325;1101;101445;-80
2021/11/01 05:36:21;;;;;;;85.17;46.53;;;;;;;4.66;69.82;100891.98;127276;1101;101505;-79
2021/11/01 05:38:49;;;;;;;89.70;46.47;;;;;;;4.65;69.94;100887.58;127368;1101;101975;-79
2021/11/01 05:41:18;;;;;;;89.17;48.33;;;;;;;4.64;69.72;100891.00;126309;1102;101940;-79
2021/11/01 05:43:46;;;;;;;82.03;45.57;;;;;;;4.63;69.43;100889.19;127060;1101;102114;-79
2021/11/01 05:46:15;;;;;;;87.83;48.63;;;;;;;4.56;69.76;100894.77;127156;1102;101859;-79
2021/11/01 05:48:51;;;;;;;86.30;47.70;;;;;;;4.55;69.75;100886.87;126947;1102;101707;-79
2021/11/01 05:51:22;;;;;;;89.50;48.60;;;;;;;4.55;69.41;100892.98;127094;1101;102760;-79
2021/11/01 05:53:53;;;;;;;87.63;46.27;;;;;;;4.57;69.69;100888.78;126947;1101;101641;-79
2021/11/01 05:56:30;;;;;;;88.87;48.27;;;;;;;4.68;70.20;100886.89;126919;1101;101960;-80
2021/11/01 05:59:11;;;;;;;88.07;45.57;;;;;;;4.77;69.91;100889.17;127127;1101;101108;-79
2021/11/01 06:04:32;;;;;;;95.27;49.03;;;;;;;4.92;69.70;100887.56;127035;1101;102032;-79
2021/11/01 06:07:06;;;;;;;103.97;51.23;;;;;;;5.04;70.18;100895.27;127068;1100;101766;-79
2021/11/01 06:09:51;;;;;;;103.00;52.30;;;;;;;5.17;69.61;100891.73;126312;1102;101949;-79
2021/11/01 06:15:08;;;;;;;110.03;56.67;;;;;;;5.49;70.37;100898.09;127147;1101;101562;-80
2021/11/01 06:17:40;;;;;;;117.60;57.80;;;;;;;5.56;70.17;100895.97;126380;1101;102202;-80
2021/11/01 06:20:14;;;;;;;106.33;53.47;;;;;;;5.66;70.14;100899.14;127080;1101;101958;-80
2021/11/01 06:22:46;;;;;;;117.30;55.45;;;;;;;5.72;69.95;100892.59;126350;1102;101724;-79
2021/11/01 06:25:19;;;;;;;117.20;56.57;;;;;;;5.83;70.20;100903.67;126311;1102;101649;-80
2021/11/01 06:27:53;;;;;;;90.30;50.97;;;;;;;5.92;69.86;100890.29;126647;1102;101619;-79
2021/11/01 06:30:33;;;;;;;96.53;50.83;;;;;;;5.99;69.90;100889.02;126805;1100;101897;-80
2021/11/01 06:41:42;;;;;;;95.17;52.73;;;;;;;6.34;70.10;100879.77;126966;1101;101584;-81
2021/11/01 06:44:25;;;;;;;97.60;49.40;;;;;;;6.36;69.85;100872.93;126589;1101;101923;-80
2021/11/01 06:49:53;;;;;;;102.53;49.63;;;;;;;6.51;70.32;100872.94;126338;1102;102004;-79
2021/11/01 06:52:48;;;;;;;101.10;46.33;;;;;;;6.59;70.51;100864.77;126249;1102;101171;-81
2021/11/01 06:58:50;;;;;;;104.03;48.43;;;;;;;6.78;70.42;100860.59;126395;1101;103294;-80
2021/11/01 07:15:02;;;;;;;88.67;42.17;;;;;;;7.01;70.55;100844.52;126698;1101;102141;-77
2021/11/01 07:17:40;;;;;;;89.33;44.40;;;;;;;7.02;70.74;100854.12;127061;1101;101682;-79
2021/11/01 07:20:21;;;;;;;94.50;46.07;;;;;;;7.12;70.87;100852.02;126317;1102;101713;-79
2021/11/01 08:23:47;;;;;;;63.48;31.60;;;;;;;7.49;71.70;100851.42;126275;1102;101733;-79
2021/11/01 08:40:09;;;;;;;63.30;29.63;;;;;;;7.48;72.13;100855.75;126266;1102;101650;-79
2021/11/01 08:48:28;;;;;;;68.40;33.73;;;;;;;7.53;72.03;100848.17;126745;1101;103170;-77
2021/11/01 09:19:27;;;;;;;72.87;31.70;;;;;;;7.98;72.40;100817.42;126323;1102;101957;-79
2021/11/01 09:22:28;;;;;;;70.23;31.07;;;;;;;8.05;72.70;100814.28;126486;1102;101744;-79
2021/11/01 09:25:11;;;;;;;64.27;29.63;;;;;;;8.14;72.69;100812.98;126650;1101;101700;-80
2021/11/01 09:28:06;;;;;;;66.27;30.50;;;;;;;8.19;71.89;100816.71;126352;1102;101612;-78
2021/11/01 09:42:10;;;;;;;68.97;29.47;;;;;;;8.45;72.73;100794.52;126476;1102;101662;-77
2021/11/01 09:44:41;;;;;;;77.97;33.47;;;;;;;8.48;72.05;100794.66;126314;1102;103601;-78
2021/11/01 09:47:31;;;;;;;66.10;29.67;;;;;;;8.52;71.92;100788.73;126303;1102;101715;-79
2021/11/01 09:49:59;;;;;;;74.37;34.33;;;;;;;8.53;72.26;100785.31;126415;1102;102716;-78
2021/11/01 09:52:57;;;;;;;74.80;33.63;;;;;;;8.55;72.53;100778.42;127152;1101;101638;-77
2021/11/01 09:55:47;;;;;;;77.33;35.10;;;;;;;8.56;72.08;100777.61;127224;1101;101614;-80
2021/11/01 10:01:10;;;;;;;75.80;33.17;;;;;;;8.66;72.57;100764.98;126846;1101;101569;-79
2021/11/01 10:03:43;;;;;;;68.57;30.87;;;;;;;8.71;71.88;100760.84;127044;1102;101679;-79
2021/11/01 10:06:22;;;;;;;70.97;31.33;;;;;;;8.79;71.98;100759.52;126324;1102;101925;-81
2021/11/01 10:09:02;;;;;;;68.80;32.30;;;;;;;8.89;72.46;100750.36;126332;1102;101153;-78
2021/11/01 10:11:34;;;;;;;72.53;33.50;;;;;;;8.96;71.91;100745.48;126300;1102;102042;-79
2021/11/01 10:14:16;;;;;;;72.00;32.20;;;;;;;8.98;71.84;100746.44;126282;1105;101812;-80
2021/11/01 10:19:36;;;;;;;75.60;34.83;;;;;;;9.09;72.11;100725.99;126326;1102;101687;-81
2021/11/01 10:22:16;;;;;;;72.93;35.10;;;;;;;9.13;72.38;100725.31;126900;1101;101346;-79
2021/11/01 10:24:47;;;;;;;77.70;34.27;;;;;;;9.13;72.14;100725.31;126338;1102;103016;-78
2021/11/01 10:27:28;;;;;;;81.90;36.73;;;;;;;9.09;71.69;100723.38;126899;1101;101566;-79
2021/11/01 10:30:01;;;;;;;82.23;35.93;;;;;;;9.07;72.40;100717.19;126277;1102;101786;-79
2021/11/01 10:32:42;;;;;;;83.30;38.03;;;;;;;8.94;72.36;100718.36;126924;1101;101622;-78
2021/11/01 10:35:18;;;;;;;81.67;37.77;;;;;;;8.93;71.65;100716.55;126332;1102;101604;-79
2021/11/01 10:38:06;;;;;;;84.70;39.27;;;;;;;9.02;71.96;100715.17;126669;1101;101974;-79
2021/11/01 10:40:40;;;;;;;88.93;39.83;;;;;;;9.14;71.92;100710.48;126258;1102;101807;-79
2021/11/01 10:43:28;;;;;;;82.23;38.13;;;;;;;9.25;71.76;100709.23;126296;1102;101655;-77
2021/11/01 10:57:23;;;;;;;89.13;41.47;;;;;;;9.45;71.76;100698.75;126300;1102;101915;-79
2021/11/01 11:10:57;;;;;;;85.63;41.27;;;;;;;9.47;71.98;100695.38;126664;1102;102050;-79
2021/11/01 11:13:32;;;;;;;88.83;42.40;;;;;;;9.59;71.39;100684.52;126313;1102;101740;-79
2021/11/01 11:16:03;;;;;;;95.03;45.37;;;;;;;9.60;71.26;100685.40;126375;1102;101672;-80
2021/11/01 11:18:51;;;;;;;88.27;42.57;;;;;;;9.56;71.30;100681.77;126313;1101;101945;-78
2021/11/01 11:21:42;;;;;;;93.30;43.50;;;;;;;9.57;71.21;100680.95;126244;1102;101988;-79
2021/11/01 11:27:21;;;;;;;88.50;42.13;;;;;;;9.71;71.36;100671.05;126275;1105;101543;-79
2021/11/01 11:30:14;;;;;;;91.83;44.97;;;;;;;9.80;71.35;100679.30;126325;1105;101799;-78
2021/11/01 11:32:59;;;;;;;80.05;36.65;;;;;;;9.89;71.34;100673.52;126284;1105;103505;-79
2021/11/01 11:38:37;;;;;;;89.37;43.07;;;;;;;10.07;71.71;100670.77;126277;1105;101725;-80
2021/11/01 11:44:06;;;;;;;85.93;40.10;;;;;;;10.18;70.87;100665.95;126302;1105;101695;-79
2021/11/01 11:49:28;;;;;;;79.97;38.50;;;;;;;10.09;70.51;100653.36;126282;1105;102014;-81
2021/11/01 11:52:03;;;;;;;85.03;39.77;;;;;;;10.01;71.01;100658.30;126239;1104;102102;-80
2021/11/01 11:54:38;;;;;;;87.37;44.30;;;;;;;9.93;71.15;100646.61;126265;1105;101781;-77
2021/11/01 11:57:21;;;;;;;81.33;38.90;;;;;;;9.85;70.65;100654.16;126301;1105;101711;-78
2021/11/01 11:59:55;;;;;;;81.87;40.17;;;;;;;9.78;70.45;100641.63;126564;1101;103109;-79
2021/11/01 12:02:35;;;;;;;80.10;41.58;;;;;;;9.71;71.02;100653.59;126431;1102;101907;-80
2021/11/01 12:05:14;;;;;;;83.00;41.27;;;;;;;9.74;70.60;100649.30;126310;1102;101652;-78
2021/11/01 12:08:01;;;;;;;81.77;40.33;;;;;;;9.75;70.61;100631.02;126796;1101;101871;-80
2021/11/01 12:13:50;;;;;;;84.00;41.03;;;;;;;9.81;70.50;100638.25;126302;1102;101961;-79
2021/11/01 12:19:07;;;;;;;82.53;42.50;;;;;;;9.93;70.40;100638.75;126348;1102;101612;-80
2021/11/01 12:22:11;;;;;;;84.83;42.77;;;;;;;9.94;70.34;100648.42;126864;1101;101631;-80
2021/11/01 12:25:00;;;;;;;71.60;36.00;;;;;;;9.96;70.95;100641.50;126931;1101;101621;-80
2021/11/01 12:27:41;;;;;;;79.17;39.93;;;;;;;9.96;70.24;100643.23;127221;1101;101958;-79
2021/11/01 12:30:25;;;;;;;73.70;38.73;;;;;;;9.95;70.30;100638.81;126293;1102;101579;-79
2021/11/01 12:33:00;;;;;;;73.57;38.47;;;;;;;9.96;70.27;100631.02;126785;1101;101307;-79
2021/11/01 12:35:48;;;;;;;72.10;37.70;;;;;;;9.96;70.74;100633.63;126846;1101;101615;-79
2021/11/01 12:38:41;;;;;;;76.40;39.20;;;;;;;9.94;70.41;100635.31;127104;1101;101844;-78
2021/11/01 12:41:26;;;;;;;75.90;37.93;;;;;;;9.88;70.62;100630.70;126997;1101;102022;-81
2021/11/01 12:49:52;;;;;;;69.27;36.17;;;;;;;9.76;70.69;100631.94;126950;1101;101107;-80
2021/11/01 12:58:01;;;;;;;67.87;36.23;;;;;;;9.74;70.72;100617.85;126798;1102;101882;-79
2021/11/01 13:00:36;;;;;;;;;;;;;;;9.76;70.33;100630.20;127443;1101;101533;-79
2021/11/01 13:03:20;;;;;;;65.87;34.80;;;;;;;9.78;70.83;100614.54;126277;1101;101659;-81
2021/11/01 13:05:54;;;;;;;68.80;36.40;;;;;;;9.77;70.79;100613.66;127130;1102;101325;-80
2021/11/01 13:08:32;;;;;;;69.00;34.50;;;;;;;9.72;70.22;100609.92;126711;1101;102973;-79
2021/11/01 13:11:05;;;;;;;71.23;35.97;;;;;;;9.64;70.26;100604.38;126340;1102;101918;-79
2021/11/01 13:13:58;;;;;;;68.53;35.83;;;;;;;9.61;71.05;100612.11;126325;1102;101968;-79
2021/11/01 13:19:20;;;;;;;71.43;35.53;;;;;;;9.60;70.44;100599.86;126885;1101;102009;-78
2021/11/01 13:25:13;;;;;;;72.07;37.13;;;;;;;9.66;70.35;100596.58;126308;1102;101290;-80
2021/11/01 13:27:53;;;;;;;80.73;38.63;;;;;;;9.64;70.23;100599.13;126676;1101;101898;-80
2021/11/01 13:36:17;;;;;;;78.97;41.13;;;;;;;9.52;71.00;100578.59;127038;1101;102082;-78
2021/11/01 13:38:56;;;;;;;76.37;40.03;;;;;;;9.50;70.49;100581.96;126265;1102;101697;-79
2021/11/01 13:41:29;;;;;;;82.07;42.43;;;;;;;9.46;70.38;100574.83;126593;1101;101824;-78
2021/11/01 13:44:09;;;;;;;78.27;40.57;;;;;;;9.41;70.37;100584.20;126694;1101;101499;-79
2021/11/01 13:46:53;;;;;;;71.97;39.50;;;;;;;9.39;70.33;100580.63;126325;1103;102198;-81
2021/11/01 13:49:28;;;;;;;81.57;41.73;;;;;;;9.34;70.59;100570.84;126818;1101;101989;-81
2021/11/01 13:52:17;;;;;;;83.97;43.73;;;;;;;9.32;70.92;100572.52;126637;1101;101656;-79
2021/11/01 13:55:04;;;;;;;83.60;42.73;;;;;;;9.32;70.42;100582.99;126287;1102;102059;-78
2021/11/01 13:57:44;;;;;;;83.13;41.17;;;;;;;9.27;70.70;100576.68;126343;1102;112167;-77
2021/11/01 14:11:25;;;;;;;70.87;35.53;;;;;;;9.08;70.22;100571.47;126734;1101;101667;-80
2021/11/01 14:16:40;;;;;;;74.47;40.03;;;;;;;9.02;70.98;100571.21;127086;1101;102665;-77
2021/11/01 14:19:20;;;;;;;78.27;39.93;;;;;;;8.98;70.95;100568.46;126302;1102;101851;-77
2021/11/01 15:09:09;;;;;;;76.97;38.40;;;;;;;8.44;71.35;100575.66;126261;1105;102012;-78
2021/11/01 15:14:43;;;;;;;80.53;39.10;;;;;;;8.39;71.04;100575.41;126272;1102;102138;-79
2021/11/01 15:36:41;;;;;;;77.97;40.10;;;;;;;8.13;71.77;100571.59;126279;1102;102123;-78
2021/11/01 15:42:36;;;;;;;81.00;40.33;;;;;;;8.17;71.43;100578.77;126246;1102;101994;-78
2021/11/01 16:18:03;;;;;;;85.27;42.77;;;;;;;8.10;72.52;100566.22;126413;1101;101595;-81
2021/11/01 16:20:31;;;;;;;84.47;43.00;;;;;;;8.10;72.39;100566.22;126507;1101;119039;-81
2021/11/01 16:23:16;;;;;;;85.33;42.03;;;;;;;8.11;72.09;100568.02;126464;1101;101636;-80
2021/11/01 16:25:44;;;;;;;80.57;42.27;;;;;;;8.10;71.92;100566.22;126329;1102;101687;-80
2021/11/01 16:28:14;;;;;;;90.17;43.50;;;;;;;8.12;72.66;100561.06;126332;1102;101637;-80
2021/11/01 16:30:51;;;;;;;87.57;44.27;;;;;;;8.12;72.55;100574.13;127088;1101;101133;-80
2021/11/01 16:33:20;;;;;;;88.13;44.87;;;;;;;8.13;72.24;100571.59;127123;1101;101904;-80
2021/11/01 16:35:54;;;;;;;89.87;44.27;;;;;;;8.14;72.04;100573.39;127266;1101;101841;-80
2021/11/01 16:38:23;;;;;;;88.30;45.17;;;;;;;8.18;72.40;100566.58;126835;1101;101672;-80
2021/11/01 16:40:52;;;;;;;90.03;46.27;;;;;;;8.20;72.15;100570.18;126938;1101;101642;-80
2021/11/01 16:43:22;;;;;;;93.60;47.93;;;;;;;8.18;72.73;100567.50;126388;1102;101073;-79
2021/11/01 16:45:52;;;;;;;88.83;45.87;;;;;;;8.18;72.21;100559.66;127187;1101;101991;-80
2021/11/01 16:48:23;;;;;;;95.23;48.60;;;;;;;8.20;72.49;100573.68;127317;1102;101581;-79
2021/11/01 16:50:54;;;;;;;89.77;46.07;;;;;;;8.20;72.90;100565.84;126341;1102;101752;-80
2021/11/01 16:53:23;;;;;;;90.07;46.13;;;;;;;8.19;72.92;100561.42;127263;1100;101558;-80
2021/11/01 16:55:52;;;;;;;92.13;46.20;;;;;;;8.19;72.99;100558.81;126374;1102;101172;-80
2021/11/01 16:58:26;;;;;;;87.67;45.43;;;;;;;8.20;72.99;100567.56;126308;1102;101920;-80
2021/11/01 17:01:01;;;;;;;87.47;44.60;;;;;;;8.19;73.00;100564.03;126255;1105;101727;-81
2021/11/01 17:03:35;;;;;;;87.90;45.40;;;;;;;8.21;72.41;100566.72;126312;1105;101718;-80
2021/11/01 17:06:10;;;;;;;92.47;46.83;;;;;;;8.21;72.39;100565.02;126318;1105;101561;-80
2021/11/01 17:22:14;;;;;;;88.20;45.60;;;;;;;8.11;73.03;100547.11;126288;1105;101677;-80
2021/11/01 17:24:46;;;;;;;92.37;47.70;;;;;;;8.07;73.46;100545.17;126315;1105;102113;-80
2021/11/01 17:27:33;;;;;;;95.97;48.43;;;;;;;8.06;72.93;100539.06;126294;1105;101810;-80
2021/11/01 17:35:47;;;;;;;92.33;48.27;;;;;;;8.12;73.16;100532.31;127179;1101;101498;-80
2021/11/01 18:43:35;;;;;;;;;;;;;;;8.39;74.42;100499.59;127351;1101;101513;-80
2021/11/01 18:51:35;;;;;;;90.00;47.23;;;;;;;8.38;73.78;100494.28;127367;1102;102390;-80
2021/11/01 18:54:10;;;;;;;93.47;49.43;;;;;;;8.40;73.91;100492.66;127302;1101;101502;-80
2021/11/01 18:56:42;;;;;;;89.97;47.80;;;;;;;8.42;73.55;100490.99;126273;1102;101998;-79